sensor_id;sensor_type;location;lat;lon;timestamp;P1;durP1;ratioP1;P2;durP2;ratioP2
11141;SDS011;5625;50.122;19.864;2023-08-20T00:00:13;9.87;;;9.07;;
11141;SDS011;5625;50.122;19.864;2023-08-20T00:02:43;10.60;;;9.60;;
11141;SDS011;5625;50.122;19.864;2023-08-20T00:05:13;9.53;;;8.60;;
11141;SDS011;5625;50.122;19.864;2023-08-20T00:07:42;10.03;;;9.07;;
11141;SDS011;5625;50.122;19.864;2023-08-20T00:10:12;10.03;;;9.20;;
11141;SDS011;5625;50.122;19.864;2023-08-20T00:12:40;10.30;;;9.20;;
11141;SDS011;5625;50.122;19.864;2023-08-20T00:15:08;10.13;;;9.33;;
11141;SDS011;5625;50.122;19.864;2023-08-20T00:17:37;10.90;;;9.87;;
11141;SDS011;5625;50.122;19.864;2023-08-20T00:20:07;10.43;;;9.33;;
11141;SDS011;5625;50.122;19.864;2023-08-20T00:22:39;10.07;;;9.17;;
11141;SDS011;5625;50.122;19.864;2023-08-20T00:25:09;9.80;;;8.97;;
11141;SDS011;5625;50.122;19.864;2023-08-20T00:27:39;10.33;;;9.33;;
11141;SDS011;5625;50.122;19.864;2023-08-20T00:30:08;9.60;;;8.80;;
11141;SDS011;5625;50.122;19.864;2023-08-20T00:32:37;11.00;;;9.97;;
11141;SDS011;5625;50.122;19.864;2023-08-20T00:35:06;10.00;;;9.00;;
11141;SDS011;5625;50.122;19.864;2023-08-20T00:37:34;10.07;;;9.17;;
11141;SDS011;5625;50.122;19.864;2023-08-20T00:40:03;10.17;;;9.30;;
11141;SDS011;5625;50.122;19.864;2023-08-20T00:42:33;11.30;;;10.13;;
11141;SDS011;5625;50.122;19.864;2023-08-20T00:45:01;9.60;;;8.80;;
11141;SDS011;5625;50.122;19.864;2023-08-20T00:47:30;9.97;;;9.00;;
11141;SDS011;5625;50.122;19.864;2023-08-20T00:49:59;10.27;;;9.20;;
11141;SDS011;5625;50.122;19.864;2023-08-20T00:52:28;9.93;;;9.13;;
11141;SDS011;5625;50.122;19.864;2023-08-20T00:54:57;9.87;;;8.93;;
11141;SDS011;5625;50.122;19.864;2023-08-20T00:57:26;9.73;;;8.83;;
11141;SDS011;5625;50.122;19.864;2023-08-20T00:59:56;10.10;;;9.03;;
11141;SDS011;5625;50.122;19.864;2023-08-20T01:02:24;9.27;;;8.37;;
11141;SDS011;5625;50.122;19.864;2023-08-20T01:04:52;10.03;;;9.23;;
11141;SDS011;5625;50.122;19.864;2023-08-20T01:07:23;9.33;;;8.60;;
11141;SDS011;5625;50.122;19.864;2023-08-20T01:10:04;11.13;;;9.60;;
11141;SDS011;5625;50.122;19.864;2023-08-20T01:12:37;9.37;;;8.67;;
11141;SDS011;5625;50.122;19.864;2023-08-20T01:15:08;10.23;;;9.33;;
11141;SDS011;5625;50.122;19.864;2023-08-20T01:17:40;10.53;;;9.50;;
11141;SDS011;5625;50.122;19.864;2023-08-20T01:20:08;9.83;;;8.93;;
11141;SDS011;5625;50.122;19.864;2023-08-20T01:25:54;10.20;;;9.30;;
11141;SDS011;5625;50.122;19.864;2023-08-20T01:28:36;9.73;;;8.83;;
11141;SDS011;5625;50.122;19.864;2023-08-20T01:31:05;9.77;;;8.90;;
11141;SDS011;5625;50.122;19.864;2023-08-20T01:33:35;9.87;;;8.97;;
11141;SDS011;5625;50.122;19.864;2023-08-20T01:36:06;9.43;;;8.53;;
11141;SDS011;5625;50.122;19.864;2023-08-20T01:38:37;11.70;;;8.70;;
11141;SDS011;5625;50.122;19.864;2023-08-20T01:41:05;9.47;;;8.60;;
11141;SDS011;5625;50.122;19.864;2023-08-20T01:43:33;10.47;;;8.87;;
11141;SDS011;5625;50.122;19.864;2023-08-20T01:46:07;10.13;;;9.27;;
11141;SDS011;5625;50.122;19.864;2023-08-20T01:48:36;9.53;;;8.77;;
11141;SDS011;5625;50.122;19.864;2023-08-20T01:51:04;10.17;;;9.27;;
11141;SDS011;5625;50.122;19.864;2023-08-20T01:53:32;9.83;;;9.03;;
11141;SDS011;5625;50.122;19.864;2023-08-20T01:56:00;10.87;;;9.17;;
11141;SDS011;5625;50.122;19.864;2023-08-20T01:58:28;9.10;;;8.33;;
11141;SDS011;5625;50.122;19.864;2023-08-20T02:00:58;10.07;;;9.17;;
11141;SDS011;5625;50.122;19.864;2023-08-20T02:03:26;10.50;;;9.50;;
11141;SDS011;5625;50.122;19.864;2023-08-20T02:05:54;9.10;;;8.30;;
11141;SDS011;5625;50.122;19.864;2023-08-20T02:08:23;9.23;;;8.43;;
11141;SDS011;5625;50.122;19.864;2023-08-20T02:10:58;9.20;;;8.30;;
11141;SDS011;5625;50.122;19.864;2023-08-20T02:13:27;9.53;;;8.67;;
11141;SDS011;5625;50.122;19.864;2023-08-20T02:16:00;9.30;;;8.50;;
11141;SDS011;5625;50.122;19.864;2023-08-20T02:18:29;8.83;;;8.03;;
11141;SDS011;5625;50.122;19.864;2023-08-20T02:20:58;9.60;;;8.90;;
11141;SDS011;5625;50.122;19.864;2023-08-20T02:23:26;9.10;;;8.33;;
11141;SDS011;5625;50.122;19.864;2023-08-20T02:25:54;9.60;;;8.73;;
11141;SDS011;5625;50.122;19.864;2023-08-20T02:28:22;9.63;;;8.83;;
11141;SDS011;5625;50.122;19.864;2023-08-20T02:30:52;8.67;;;7.97;;
11141;SDS011;5625;50.122;19.864;2023-08-20T02:33:22;8.93;;;8.13;;
11141;SDS011;5625;50.122;19.864;2023-08-20T02:35:50;9.33;;;8.43;;
11141;SDS011;5625;50.122;19.864;2023-08-20T02:38:18;9.07;;;8.37;;
11141;SDS011;5625;50.122;19.864;2023-08-20T02:40:46;9.03;;;8.23;;
11141;SDS011;5625;50.122;19.864;2023-08-20T02:43:14;9.30;;;8.40;;
11141;SDS011;5625;50.122;19.864;2023-08-20T02:45:42;9.50;;;8.60;;
11141;SDS011;5625;50.122;19.864;2023-08-20T02:48:11;9.50;;;8.67;;
11141;SDS011;5625;50.122;19.864;2023-08-20T02:50:41;9.63;;;8.73;;
11141;SDS011;5625;50.122;19.864;2023-08-20T02:53:09;9.37;;;8.67;;
11141;SDS011;5625;50.122;19.864;2023-08-20T02:55:37;9.43;;;8.63;;
11141;SDS011;5625;50.122;19.864;2023-08-20T02:58:05;10.07;;;9.17;;
11141;SDS011;5625;50.122;19.864;2023-08-20T03:00:35;10.03;;;9.03;;
11141;SDS011;5625;50.122;19.864;2023-08-20T03:03:04;9.53;;;8.73;;
11141;SDS011;5625;50.122;19.864;2023-08-20T03:05:34;9.80;;;8.90;;
11141;SDS011;5625;50.122;19.864;2023-08-20T03:08:04;9.53;;;8.83;;
11141;SDS011;5625;50.122;19.864;2023-08-20T03:10:33;9.40;;;8.60;;
11141;SDS011;5625;50.122;19.864;2023-08-20T03:13:02;9.77;;;8.97;;
11141;SDS011;5625;50.122;19.864;2023-08-20T03:15:31;10.03;;;9.20;;
11141;SDS011;5625;50.122;19.864;2023-08-20T03:17:59;9.97;;;9.17;;
11141;SDS011;5625;50.122;19.864;2023-08-20T03:20:27;9.80;;;9.00;;
11141;SDS011;5625;50.122;19.864;2023-08-20T03:22:57;9.70;;;8.80;;
11141;SDS011;5625;50.122;19.864;2023-08-20T03:25:27;9.13;;;8.40;;
11141;SDS011;5625;50.122;19.864;2023-08-20T03:27:55;9.27;;;8.43;;
11141;SDS011;5625;50.122;19.864;2023-08-20T03:30:23;9.67;;;8.80;;
11141;SDS011;5625;50.122;19.864;2023-08-20T03:32:51;9.13;;;8.40;;
11141;SDS011;5625;50.122;19.864;2023-08-20T03:35:19;8.77;;;8.07;;
11141;SDS011;5625;50.122;19.864;2023-08-20T03:37:47;9.50;;;8.60;;
11141;SDS011;5625;50.122;19.864;2023-08-20T03:40:15;8.57;;;7.93;;
11141;SDS011;5625;50.122;19.864;2023-08-20T03:42:46;9.27;;;8.30;;
11141;SDS011;5625;50.122;19.864;2023-08-20T03:45:14;9.50;;;8.70;;
11141;SDS011;5625;50.122;19.864;2023-08-20T03:47:42;9.43;;;8.60;;
11141;SDS011;5625;50.122;19.864;2023-08-20T03:50:13;9.73;;;8.93;;
11141;SDS011;5625;50.122;19.864;2023-08-20T03:52:41;9.67;;;8.97;;
11141;SDS011;5625;50.122;19.864;2023-08-20T03:55:09;9.50;;;8.70;;
11141;SDS011;5625;50.122;19.864;2023-08-20T03:57:37;9.90;;;9.03;;
11141;SDS011;5625;50.122;19.864;2023-08-20T04:00:07;9.40;;;8.60;;
11141;SDS011;5625;50.122;19.864;2023-08-20T04:02:37;8.63;;;7.93;;
11141;SDS011;5625;50.122;19.864;2023-08-20T04:05:06;9.80;;;8.97;;
11141;SDS011;5625;50.122;19.864;2023-08-20T04:07:34;9.50;;;8.70;;
11141;SDS011;5625;50.122;19.864;2023-08-20T04:10:03;10.17;;;9.23;;
11141;SDS011;5625;50.122;19.864;2023-08-20T04:12:32;10.23;;;9.33;;
11141;SDS011;5625;50.122;19.864;2023-08-20T04:15:00;10.80;;;9.90;;
11141;SDS011;5625;50.122;19.864;2023-08-20T04:17:30;9.83;;;8.93;;
11141;SDS011;5625;50.122;19.864;2023-08-20T04:19:58;10.90;;;9.80;;
11141;SDS011;5625;50.122;19.864;2023-08-20T04:22:26;10.53;;;9.60;;
11141;SDS011;5625;50.122;19.864;2023-08-20T04:24:56;9.57;;;8.67;;
11141;SDS011;5625;50.122;19.864;2023-08-20T04:27:24;9.83;;;8.93;;
11141;SDS011;5625;50.122;19.864;2023-08-20T04:29:52;9.90;;;9.10;;
11141;SDS011;5625;50.122;19.864;2023-08-20T04:32:20;10.03;;;9.07;;
11141;SDS011;5625;50.122;19.864;2023-08-20T04:34:50;10.13;;;9.13;;
11141;SDS011;5625;50.122;19.864;2023-08-20T04:37:20;9.90;;;9.10;;
11141;SDS011;5625;50.122;19.864;2023-08-20T04:39:48;10.47;;;9.40;;
11141;SDS011;5625;50.122;19.864;2023-08-20T04:42:17;10.20;;;9.30;;
11141;SDS011;5625;50.122;19.864;2023-08-20T04:44:45;9.77;;;8.97;;
11141;SDS011;5625;50.122;19.864;2023-08-20T04:47:15;9.87;;;8.97;;
11141;SDS011;5625;50.122;19.864;2023-08-20T04:49:44;11.73;;;9.33;;
11141;SDS011;5625;50.122;19.864;2023-08-20T04:52:13;9.77;;;8.97;;
11141;SDS011;5625;50.122;19.864;2023-08-20T04:54:41;9.90;;;9.00;;
11141;SDS011;5625;50.122;19.864;2023-08-20T04:57:09;9.83;;;9.03;;
11141;SDS011;5625;50.122;19.864;2023-08-20T04:59:37;10.77;;;9.67;;
11141;SDS011;5625;50.122;19.864;2023-08-20T05:02:05;10.07;;;9.27;;
11141;SDS011;5625;50.122;19.864;2023-08-20T05:04:33;10.87;;;9.97;;
11141;SDS011;5625;50.122;19.864;2023-08-20T05:07:01;10.47;;;9.40;;
11141;SDS011;5625;50.122;19.864;2023-08-20T05:09:32;10.50;;;9.63;;
11141;SDS011;5625;50.122;19.864;2023-08-20T05:12:01;9.97;;;9.17;;
11141;SDS011;5625;50.122;19.864;2023-08-20T05:14:29;10.30;;;9.50;;
11141;SDS011;5625;50.122;19.864;2023-08-20T05:16:58;10.37;;;9.47;;
11141;SDS011;5625;50.122;19.864;2023-08-20T05:19:26;10.20;;;9.40;;
11141;SDS011;5625;50.122;19.864;2023-08-20T05:21:54;9.87;;;9.07;;
11141;SDS011;5625;50.122;19.864;2023-08-20T05:24:25;10.00;;;9.20;;
11141;SDS011;5625;50.122;19.864;2023-08-20T05:27:08;10.50;;;9.50;;
11141;SDS011;5625;50.122;19.864;2023-08-20T05:29:37;10.53;;;9.70;;
11141;SDS011;5625;50.122;19.864;2023-08-20T05:32:05;9.80;;;8.90;;
11141;SDS011;5625;50.122;19.864;2023-08-20T05:34:33;9.43;;;8.60;;
11141;SDS011;5625;50.122;19.864;2023-08-20T05:37:02;10.47;;;9.57;;
11141;SDS011;5625;50.122;19.864;2023-08-20T05:39:35;10.40;;;9.33;;
11141;SDS011;5625;50.122;19.864;2023-08-20T05:42:05;10.27;;;9.37;;
11141;SDS011;5625;50.122;19.864;2023-08-20T05:44:34;9.50;;;8.80;;
11141;SDS011;5625;50.122;19.864;2023-08-20T05:47:03;9.80;;;8.90;;
11141;SDS011;5625;50.122;19.864;2023-08-20T05:49:32;9.60;;;8.60;;
11141;SDS011;5625;50.122;19.864;2023-08-20T05:52:00;9.10;;;8.23;;
11141;SDS011;5625;50.122;19.864;2023-08-20T05:54:28;9.17;;;8.37;;
11141;SDS011;5625;50.122;19.864;2023-08-20T05:56:57;8.47;;;7.70;;
11141;SDS011;5625;50.122;19.864;2023-08-20T05:59:25;9.07;;;8.27;;
11141;SDS011;5625;50.122;19.864;2023-08-20T06:01:57;9.52;;;8.60;;
11141;SDS011;5625;50.122;19.864;2023-08-20T06:04:25;9.20;;;8.35;;
11141;SDS011;5625;50.122;19.864;2023-08-20T06:06:53;8.98;;;8.07;;
11141;SDS011;5625;50.122;19.864;2023-08-20T06:09:21;8.85;;;8.05;;
11141;SDS011;5625;50.122;19.864;2023-08-20T06:11:49;8.50;;;7.78;;
11141;SDS011;5625;50.122;19.864;2023-08-20T06:14:17;8.93;;;8.23;;
11141;SDS011;5625;50.122;19.864;2023-08-20T06:16:45;8.02;;;7.32;;
11141;SDS011;5625;50.122;19.864;2023-08-20T06:19:15;8.70;;;7.90;;
11141;SDS011;5625;50.122;19.864;2023-08-20T06:21:43;8.50;;;7.80;;
11141;SDS011;5625;50.122;19.864;2023-08-20T06:24:11;9.13;;;8.35;;
11141;SDS011;5625;50.122;19.864;2023-08-20T06:26:39;8.82;;;8.13;;
11141;SDS011;5625;50.122;19.864;2023-08-20T06:29:09;8.52;;;7.82;;
11141;SDS011;5625;50.122;19.864;2023-08-20T06:31:40;9.23;;;8.27;;
11141;SDS011;5625;50.122;19.864;2023-08-20T06:34:08;7.97;;;7.32;;
11141;SDS011;5625;50.122;19.864;2023-08-20T06:36:38;8.20;;;7.38;;
11141;SDS011;5625;50.122;19.864;2023-08-20T06:39:06;8.80;;;8.13;;
11141;SDS011;5625;50.122;19.864;2023-08-20T06:41:34;8.57;;;7.75;;
11141;SDS011;5625;50.122;19.864;2023-08-20T06:44:03;9.20;;;8.40;;
11141;SDS011;5625;50.122;19.864;2023-08-20T06:46:31;8.55;;;7.65;;
11141;SDS011;5625;50.122;19.864;2023-08-20T06:48:59;8.43;;;7.55;;
11141;SDS011;5625;50.122;19.864;2023-08-20T06:51:30;8.05;;;7.43;;
11141;SDS011;5625;50.122;19.864;2023-08-20T06:54:00;7.93;;;7.13;;
11141;SDS011;5625;50.122;19.864;2023-08-20T06:56:29;8.02;;;7.15;;
11141;SDS011;5625;50.122;19.864;2023-08-20T06:58:57;7.82;;;7.13;;
11141;SDS011;5625;50.122;19.864;2023-08-20T07:01:25;8.32;;;7.63;;
11141;SDS011;5625;50.122;19.864;2023-08-20T07:03:53;8.40;;;7.70;;
11141;SDS011;5625;50.122;19.864;2023-08-20T07:06:21;7.65;;;6.95;;
11141;SDS011;5625;50.122;19.864;2023-08-20T07:08:50;7.72;;;7.05;;
11141;SDS011;5625;50.122;19.864;2023-08-20T07:11:19;8.00;;;7.32;;
11141;SDS011;5625;50.122;19.864;2023-08-20T07:13:48;8.05;;;7.28;;
11141;SDS011;5625;50.122;19.864;2023-08-20T07:16:17;7.97;;;7.28;;
11141;SDS011;5625;50.122;19.864;2023-08-20T07:18:45;7.65;;;7.05;;
11141;SDS011;5625;50.122;19.864;2023-08-20T07:21:13;7.90;;;7.20;;
11141;SDS011;5625;50.122;19.864;2023-08-20T07:23:41;7.68;;;6.97;;
11141;SDS011;5625;50.122;19.864;2023-08-20T07:26:10;7.93;;;7.22;;
11141;SDS011;5625;50.122;19.864;2023-08-20T07:28:40;7.65;;;6.95;;
11141;SDS011;5625;50.122;19.864;2023-08-20T07:31:23;6.78;;;6.28;;
11141;SDS011;5625;50.122;19.864;2023-08-20T07:33:53;8.10;;;6.68;;
11141;SDS011;5625;50.122;19.864;2023-08-20T07:36:23;6.97;;;6.35;;
11141;SDS011;5625;50.122;19.864;2023-08-20T07:38:51;6.70;;;6.25;;
11141;SDS011;5625;50.122;19.864;2023-08-20T07:41:21;7.50;;;6.80;;
11141;SDS011;5625;50.122;19.864;2023-08-20T07:43:51;7.32;;;6.63;;
11141;SDS011;5625;50.122;19.864;2023-08-20T07:46:19;7.43;;;6.78;;
11141;SDS011;5625;50.122;19.864;2023-08-20T07:48:47;7.13;;;6.22;;
11141;SDS011;5625;50.122;19.864;2023-08-20T07:51:15;6.88;;;6.15;;
11141;SDS011;5625;50.122;19.864;2023-08-20T07:53:43;7.43;;;6.35;;
11141;SDS011;5625;50.122;19.864;2023-08-20T07:56:11;6.75;;;6.18;;
11141;SDS011;5625;50.122;19.864;2023-08-20T07:58:39;6.72;;;6.15;;
11141;SDS011;5625;50.122;19.864;2023-08-20T08:01:09;6.97;;;6.40;;
11141;SDS011;5625;50.122;19.864;2023-08-20T08:03:37;6.68;;;6.20;;
11141;SDS011;5625;50.122;19.864;2023-08-20T08:06:07;6.90;;;6.20;;
11141;SDS011;5625;50.122;19.864;2023-08-20T08:08:35;7.53;;;6.50;;
11141;SDS011;5625;50.122;19.864;2023-08-20T08:11:03;6.60;;;5.97;;
11141;SDS011;5625;50.122;19.864;2023-08-20T08:13:31;6.60;;;6.10;;
11141;SDS011;5625;50.122;19.864;2023-08-20T08:15:59;6.65;;;6.10;;
11141;SDS011;5625;50.122;19.864;2023-08-20T08:18:29;6.78;;;6.03;;
11141;SDS011;5625;50.122;19.864;2023-08-20T08:20:58;7.82;;;6.75;;
11141;SDS011;5625;50.122;19.864;2023-08-20T08:23:26;7.55;;;6.07;;
11141;SDS011;5625;50.122;19.864;2023-08-20T08:25:54;6.45;;;5.95;;
11141;SDS011;5625;50.122;19.864;2023-08-20T08:28:25;6.55;;;6.05;;
11141;SDS011;5625;50.122;19.864;2023-08-20T08:30:53;6.90;;;6.30;;
11141;SDS011;5625;50.122;19.864;2023-08-20T08:33:23;7.57;;;6.18;;
11141;SDS011;5625;50.122;19.864;2023-08-20T08:35:53;6.95;;;6.40;;
11141;SDS011;5625;50.122;19.864;2023-08-20T08:38:21;6.93;;;6.28;;
11141;SDS011;5625;50.122;19.864;2023-08-20T08:40:52;6.70;;;6.10;;
11141;SDS011;5625;50.122;19.864;2023-08-20T08:43:22;7.13;;;6.43;;
11141;SDS011;5625;50.122;19.864;2023-08-20T08:45:50;7.00;;;6.40;;
11141;SDS011;5625;50.122;19.864;2023-08-20T08:48:19;6.68;;;6.10;;
11141;SDS011;5625;50.122;19.864;2023-08-20T08:50:49;7.05;;;6.55;;
11141;SDS011;5625;50.122;19.864;2023-08-20T08:53:19;6.63;;;6.10;;
11141;SDS011;5625;50.122;19.864;2023-08-20T08:55:49;6.50;;;6.07;;
11141;SDS011;5625;50.122;19.864;2023-08-20T08:58:17;6.82;;;6.20;;
11141;SDS011;5625;50.122;19.864;2023-08-20T09:00:47;6.55;;;6.03;;
11141;SDS011;5625;50.122;19.864;2023-08-20T09:03:16;9.77;;;6.45;;
11141;SDS011;5625;50.122;19.864;2023-08-20T09:05:47;7.03;;;6.28;;
11141;SDS011;5625;50.122;19.864;2023-08-20T09:08:20;6.80;;;6.13;;
11141;SDS011;5625;50.122;19.864;2023-08-20T09:10:49;6.47;;;5.85;;
11141;SDS011;5625;50.122;19.864;2023-08-20T09:13:21;6.75;;;5.53;;
11141;SDS011;5625;50.122;19.864;2023-08-20T09:15:52;8.35;;;6.55;;
11141;SDS011;5625;50.122;19.864;2023-08-20T09:18:21;6.10;;;5.68;;
11141;SDS011;5625;50.122;19.864;2023-08-20T09:20:49;6.32;;;5.75;;
11141;SDS011;5625;50.122;19.864;2023-08-20T09:23:17;6.22;;;5.82;;
11141;SDS011;5625;50.122;19.864;2023-08-20T09:25:47;6.25;;;5.80;;
11141;SDS011;5625;50.122;19.864;2023-08-20T09:28:15;6.47;;;5.93;;
11141;SDS011;5625;50.122;19.864;2023-08-20T09:30:56;6.32;;;5.82;;
11141;SDS011;5625;50.122;19.864;2023-08-20T09:33:24;6.95;;;6.45;;
11141;SDS011;5625;50.122;19.864;2023-08-20T09:35:53;7.40;;;6.65;;
11141;SDS011;5625;50.122;19.864;2023-08-20T09:38:22;6.25;;;5.80;;
11141;SDS011;5625;50.122;19.864;2023-08-20T09:40:53;6.43;;;5.93;;
11141;SDS011;5625;50.122;19.864;2023-08-20T09:43:25;6.05;;;5.65;;
11141;SDS011;5625;50.122;19.864;2023-08-20T09:45:55;6.95;;;5.78;;
11141;SDS011;5625;50.122;19.864;2023-08-20T09:48:26;6.07;;;5.68;;
11141;SDS011;5625;50.122;19.864;2023-08-20T09:51:00;6.18;;;5.65;;
11141;SDS011;5625;50.122;19.864;2023-08-20T09:53:33;9.35;;;5.85;;
11141;SDS011;5625;50.122;19.864;2023-08-20T09:56:09;5.82;;;5.32;;
11141;SDS011;5625;50.122;19.864;2023-08-20T09:58:42;6.32;;;5.82;;
11141;SDS011;5625;50.122;19.864;2023-08-20T10:01:12;6.65;;;5.93;;
11141;SDS011;5625;50.122;19.864;2023-08-20T10:03:40;5.80;;;5.40;;
11141;SDS011;5625;50.122;19.864;2023-08-20T10:06:10;6.72;;;5.88;;
11141;SDS011;5625;50.122;19.864;2023-08-20T10:08:39;5.72;;;5.35;;
11141;SDS011;5625;50.122;19.864;2023-08-20T10:11:08;5.80;;;5.35;;
11141;SDS011;5625;50.122;19.864;2023-08-20T10:13:38;6.00;;;5.50;;
11141;SDS011;5625;50.122;19.864;2023-08-20T10:16:07;6.30;;;5.30;;
11141;SDS011;5625;50.122;19.864;2023-08-20T10:18:36;5.80;;;5.40;;
11141;SDS011;5625;50.122;19.864;2023-08-20T10:21:05;6.47;;;5.97;;
11141;SDS011;5625;50.122;19.864;2023-08-20T10:23:34;5.60;;;5.20;;
11141;SDS011;5625;50.122;19.864;2023-08-20T10:26:10;6.18;;;5.68;;
11141;SDS011;5625;50.122;19.864;2023-08-20T10:28:39;5.68;;;5.15;;
11141;SDS011;5625;50.122;19.864;2023-08-20T10:31:08;6.25;;;5.80;;
11141;SDS011;5625;50.122;19.864;2023-08-20T10:33:38;5.57;;;5.18;;
11141;SDS011;5625;50.122;19.864;2023-08-20T10:36:17;5.53;;;5.20;;
11141;SDS011;5625;50.122;19.864;2023-08-20T10:38:49;8.68;;;5.43;;
11141;SDS011;5625;50.122;19.864;2023-08-20T10:41:25;5.65;;;5.25;;
11141;SDS011;5625;50.122;19.864;2023-08-20T10:43:57;5.40;;;5.00;;
11141;SDS011;5625;50.122;19.864;2023-08-20T10:46:26;5.90;;;5.40;;
11141;SDS011;5625;50.122;19.864;2023-08-20T10:48:57;6.28;;;5.78;;
11141;SDS011;5625;50.122;19.864;2023-08-20T10:51:27;5.70;;;5.30;;
11141;SDS011;5625;50.122;19.864;2023-08-20T10:54:05;5.70;;;5.25;;
11141;SDS011;5625;50.122;19.864;2023-08-20T10:56:39;5.45;;;5.05;;
11141;SDS011;5625;50.122;19.864;2023-08-20T10:59:09;5.57;;;5.07;;
11141;SDS011;5625;50.122;19.864;2023-08-20T11:01:42;5.95;;;5.55;;
11141;SDS011;5625;50.122;19.864;2023-08-20T11:04:11;6.25;;;5.65;;
11141;SDS011;5625;50.122;19.864;2023-08-20T11:06:42;5.63;;;5.03;;
11141;SDS011;5625;50.122;19.864;2023-08-20T11:09:10;6.28;;;5.88;;
11141;SDS011;5625;50.122;19.864;2023-08-20T11:11:41;6.05;;;5.63;;
11141;SDS011;5625;50.122;19.864;2023-08-20T11:14:11;5.97;;;5.57;;
11141;SDS011;5625;50.122;19.864;2023-08-20T11:16:42;5.93;;;5.38;;
11141;SDS011;5625;50.122;19.864;2023-08-20T11:19:11;6.97;;;5.70;;
11141;SDS011;5625;50.122;19.864;2023-08-20T11:21:40;5.82;;;5.40;;
11141;SDS011;5625;50.122;19.864;2023-08-20T11:24:10;5.90;;;5.50;;
11141;SDS011;5625;50.122;19.864;2023-08-20T11:26:39;5.68;;;5.18;;
11141;SDS011;5625;50.122;19.864;2023-08-20T11:29:10;5.88;;;5.32;;
11141;SDS011;5625;50.122;19.864;2023-08-20T11:31:39;5.85;;;5.43;;
11141;SDS011;5625;50.122;19.864;2023-08-20T11:34:11;6.05;;;5.60;;
11141;SDS011;5625;50.122;19.864;2023-08-20T11:36:40;6.00;;;5.60;;
11141;SDS011;5625;50.122;19.864;2023-08-20T11:39:10;6.25;;;5.80;;
11141;SDS011;5625;50.122;19.864;2023-08-20T11:41:39;6.13;;;5.63;;
11141;SDS011;5625;50.122;19.864;2023-08-20T11:44:09;6.18;;;5.68;;
11141;SDS011;5625;50.122;19.864;2023-08-20T11:46:41;6.13;;;5.60;;
11141;SDS011;5625;50.122;19.864;2023-08-20T11:49:11;5.78;;;5.30;;
11141;SDS011;5625;50.122;19.864;2023-08-20T11:51:42;6.20;;;5.70;;
11141;SDS011;5625;50.122;19.864;2023-08-20T11:54:14;6.18;;;5.68;;
11141;SDS011;5625;50.122;19.864;2023-08-20T11:56:45;5.68;;;5.22;;
11141;SDS011;5625;50.122;19.864;2023-08-20T11:59:14;6.80;;;5.47;;
11141;SDS011;5625;50.122;19.864;2023-08-20T12:01:49;6.18;;;5.57;;
11141;SDS011;5625;50.122;19.864;2023-08-20T12:04:18;5.90;;;5.40;;
11141;SDS011;5625;50.122;19.864;2023-08-20T12:07:01;6.70;;;6.07;;
11141;SDS011;5625;50.122;19.864;2023-08-20T12:09:31;6.38;;;5.80;;
11141;SDS011;5625;50.122;19.864;2023-08-20T12:12:01;6.25;;;5.75;;
11141;SDS011;5625;50.122;19.864;2023-08-20T12:14:30;6.63;;;6.22;;
11141;SDS011;5625;50.122;19.864;2023-08-20T12:17:00;6.60;;;6.07;;
11141;SDS011;5625;50.122;19.864;2023-08-20T12:19:29;7.13;;;6.50;;
11141;SDS011;5625;50.122;19.864;2023-08-20T12:21:57;6.75;;;6.25;;
11141;SDS011;5625;50.122;19.864;2023-08-20T12:24:25;6.43;;;5.93;;
11141;SDS011;5625;50.122;19.864;2023-08-20T12:26:53;6.03;;;5.53;;
11141;SDS011;5625;50.122;19.864;2023-08-20T12:29:23;6.22;;;5.72;;
11141;SDS011;5625;50.122;19.864;2023-08-20T12:31:51;6.13;;;5.63;;
11141;SDS011;5625;50.122;19.864;2023-08-20T12:34:20;6.15;;;5.65;;
11141;SDS011;5625;50.122;19.864;2023-08-20T12:36:50;6.57;;;5.97;;
11141;SDS011;5625;50.122;19.864;2023-08-20T12:39:18;6.85;;;6.35;;
11141;SDS011;5625;50.122;19.864;2023-08-20T12:41:46;6.75;;;6.15;;
11141;SDS011;5625;50.122;19.864;2023-08-20T12:44:14;7.13;;;6.45;;
11141;SDS011;5625;50.122;19.864;2023-08-20T12:46:44;6.85;;;6.22;;
11141;SDS011;5625;50.122;19.864;2023-08-20T12:49:12;6.82;;;6.10;;
11141;SDS011;5625;50.122;19.864;2023-08-20T12:51:40;6.95;;;6.35;;
11141;SDS011;5625;50.122;19.864;2023-08-20T12:54:08;6.50;;;5.90;;
11141;SDS011;5625;50.122;19.864;2023-08-20T12:56:37;7.07;;;6.47;;
11141;SDS011;5625;50.122;19.864;2023-08-20T12:59:05;7.00;;;6.40;;
11141;SDS011;5625;50.122;19.864;2023-08-20T13:01:35;7.30;;;6.68;;
11141;SDS011;5625;50.122;19.864;2023-08-20T13:04:05;6.75;;;6.20;;
11141;SDS011;5625;50.122;19.864;2023-08-20T13:06:37;7.18;;;6.57;;
11141;SDS011;5625;50.122;19.864;2023-08-20T13:09:06;6.10;;;5.70;;
11141;SDS011;5625;50.122;19.864;2023-08-20T13:11:35;6.95;;;6.38;;
11141;SDS011;5625;50.122;19.864;2023-08-20T13:14:06;6.53;;;6.05;;
11141;SDS011;5625;50.122;19.864;2023-08-20T13:16:35;6.78;;;6.15;;
11141;SDS011;5625;50.122;19.864;2023-08-20T13:19:06;6.53;;;6.03;;
11141;SDS011;5625;50.122;19.864;2023-08-20T13:21:37;6.40;;;5.90;;
11141;SDS011;5625;50.122;19.864;2023-08-20T13:24:06;6.45;;;5.93;;
11141;SDS011;5625;50.122;19.864;2023-08-20T13:26:35;5.78;;;5.38;;
11141;SDS011;5625;50.122;19.864;2023-08-20T13:29:03;6.32;;;5.90;;
11141;SDS011;5625;50.122;19.864;2023-08-20T13:31:31;6.45;;;5.85;;
11141;SDS011;5625;50.122;19.864;2023-08-20T13:33:59;6.63;;;6.00;;
11141;SDS011;5625;50.122;19.864;2023-08-20T13:36:28;6.60;;;5.97;;
11141;SDS011;5625;50.122;19.864;2023-08-20T13:38:57;5.40;;;4.90;;
11141;SDS011;5625;50.122;19.864;2023-08-20T13:41:25;6.07;;;5.57;;
11141;SDS011;5625;50.122;19.864;2023-08-20T13:43:53;6.30;;;5.80;;
11141;SDS011;5625;50.122;19.864;2023-08-20T13:46:21;5.55;;;5.03;;
11141;SDS011;5625;50.122;19.864;2023-08-20T13:48:49;5.78;;;5.13;;
11141;SDS011;5625;50.122;19.864;2023-08-20T13:51:17;5.30;;;4.90;;
11141;SDS011;5625;50.122;19.864;2023-08-20T13:53:47;5.00;;;4.60;;
11141;SDS011;5625;50.122;19.864;2023-08-20T13:56:18;4.82;;;4.53;;
11141;SDS011;5625;50.122;19.864;2023-08-20T13:58:46;5.63;;;5.22;;
11141;SDS011;5625;50.122;19.864;2023-08-20T14:01:16;6.18;;;5.50;;
11141;SDS011;5625;50.122;19.864;2023-08-20T14:03:45;5.40;;;5.00;;
11141;SDS011;5625;50.122;19.864;2023-08-20T14:06:13;5.50;;;5.00;;
11141;SDS011;5625;50.122;19.864;2023-08-20T14:08:41;4.50;;;4.20;;
11141;SDS011;5625;50.122;19.864;2023-08-20T14:11:11;5.00;;;4.70;;
11141;SDS011;5625;50.122;19.864;2023-08-20T14:13:39;5.50;;;4.60;;
11141;SDS011;5625;50.122;19.864;2023-08-20T14:16:09;5.00;;;4.60;;
11141;SDS011;5625;50.122;19.864;2023-08-20T14:18:37;5.05;;;4.68;;
11141;SDS011;5625;50.122;19.864;2023-08-20T14:21:05;5.28;;;4.68;;
11141;SDS011;5625;50.122;19.864;2023-08-20T14:23:33;4.60;;;4.20;;
11141;SDS011;5625;50.122;19.864;2023-08-20T14:26:04;5.05;;;4.55;;
11141;SDS011;5625;50.122;19.864;2023-08-20T14:28:35;4.53;;;4.22;;
11141;SDS011;5625;50.122;19.864;2023-08-20T14:31:03;4.75;;;4.38;;
11141;SDS011;5625;50.122;19.864;2023-08-20T14:33:31;4.75;;;4.35;;
11141;SDS011;5625;50.122;19.864;2023-08-20T14:36:02;4.63;;;4.20;;
11141;SDS011;5625;50.122;19.864;2023-08-20T14:38:30;4.38;;;4.10;;
11141;SDS011;5625;50.122;19.864;2023-08-20T14:40:59;4.85;;;4.50;;
11141;SDS011;5625;50.122;19.864;2023-08-20T14:43:30;4.68;;;4.28;;
11141;SDS011;5625;50.122;19.864;2023-08-20T14:45:59;5.07;;;4.15;;
11141;SDS011;5625;50.122;19.864;2023-08-20T14:48:30;4.80;;;4.32;;
11141;SDS011;5625;50.122;19.864;2023-08-20T14:50:58;5.30;;;4.40;;
11141;SDS011;5625;50.122;19.864;2023-08-20T14:53:26;4.82;;;4.10;;
11141;SDS011;5625;50.122;19.864;2023-08-20T14:55:56;5.05;;;4.65;;
11141;SDS011;5625;50.122;19.864;2023-08-20T14:58:24;5.47;;;4.60;;
11141;SDS011;5625;50.122;19.864;2023-08-20T15:00:52;4.78;;;4.38;;